createdAt,value
2019-06-01T00:00:27.978Z,14.90
2019-06-01T00:01:13.967Z,14.90
2019-06-01T00:02:00.137Z,14.90
2019-06-01T00:02:54.414Z,14.90
2019-06-01T00:03:33.531Z,14.90
2019-06-01T00:04:19.682Z,15.00
2019-06-01T00:05:06.226Z,14.90
2019-06-01T00:05:52.182Z,14.90
2019-06-01T00:06:38.614Z,14.90
2019-06-01T00:07:24.481Z,14.80
2019-06-01T00:08:10.138Z,14.90
2019-06-01T00:08:55.942Z,14.90
2019-06-01T00:09:43.032Z,14.90
2019-06-01T00:10:28.895Z,14.90
2019-06-01T00:11:14.852Z,14.90
2019-06-01T00:12:00.588Z,14.90
2019-06-01T00:12:47.545Z,14.80
2019-06-01T00:13:33.650Z,14.80
2019-06-01T00:14:19.484Z,14.80
2019-06-01T00:15:06.575Z,14.80
2019-06-01T00:15:52.699Z,14.80
2019-06-01T00:16:39.837Z,14.80
2019-06-01T00:17:26.292Z,14.80
2019-06-01T00:18:12.910Z,14.80
2019-06-01T00:18:59.099Z,14.80
2019-06-01T00:19:46.175Z,14.80
2019-06-01T00:20:32.186Z,14.80
2019-06-01T00:21:18.366Z,14.80
2019-06-01T00:22:04.484Z,14.70
2019-06-01T00:22:51.544Z,14.70
2019-06-01T00:23:37.815Z,14.70
2019-06-01T00:24:23.877Z,14.70
2019-06-01T00:25:09.872Z,14.70
2019-06-01T00:25:56.025Z,14.70
2019-06-01T00:26:41.936Z,14.70
2019-06-01T00:27:27.947Z,14.70
2019-06-01T00:28:14.028Z,14.70
2019-06-01T00:29:00.445Z,14.70
2019-06-01T00:29:46.801Z,14.70
2019-06-01T00:30:33.104Z,14.70
2019-06-01T00:31:18.998Z,14.70
2019-06-01T00:32:05.042Z,14.70
2019-06-01T00:32:51.354Z,14.70
2019-06-01T00:33:37.949Z,14.70
2019-06-01T00:34:24.071Z,14.60
2019-06-01T00:35:10.374Z,14.70
2019-06-01T00:35:56.519Z,14.60
2019-06-01T00:36:43.530Z,14.70
2019-06-01T00:37:30.044Z,14.60
2019-06-01T00:38:16.569Z,14.60
2019-06-01T00:39:04.032Z,14.60
2019-06-01T00:39:50.231Z,14.50
2019-06-01T00:40:37.262Z,14.60
2019-06-01T00:41:23.235Z,14.60
2019-06-01T00:42:09.291Z,14.50
2019-06-01T00:42:55.148Z,14.50
2019-06-01T00:43:46.126Z,14.50
2019-06-01T00:44:33.670Z,14.60
2019-06-01T00:45:19.801Z,14.50
2019-06-01T00:46:05.837Z,14.50
2019-06-01T00:46:52.803Z,14.50
2019-06-01T00:47:40.092Z,14.50
2019-06-01T00:48:26.627Z,14.50
2019-06-01T00:49:13.207Z,14.50
2019-06-01T00:49:59.207Z,14.50
2019-06-01T00:50:49.113Z,14.50
2019-06-01T00:51:35.403Z,14.50
2019-06-01T00:52:21.503Z,14.50
2019-06-01T00:53:07.463Z,14.40
2019-06-01T00:53:53.773Z,14.40
2019-06-01T00:54:39.731Z,14.40
2019-06-01T00:55:25.730Z,14.40
2019-06-01T00:56:11.655Z,14.40
2019-06-01T00:56:57.407Z,14.40
2019-06-01T00:57:43.524Z,14.40
2019-06-01T00:58:29.668Z,14.40
2019-06-01T00:59:15.589Z,14.40
2019-06-01T01:00:01.506Z,14.40
2019-06-01T01:00:47.779Z,14.40
2019-06-01T01:01:34.878Z,14.40
2019-06-01T01:02:20.541Z,14.40
2019-06-01T01:03:06.779Z,14.40
2019-06-01T01:03:52.511Z,14.30
2019-06-01T01:04:38.227Z,14.30
2019-06-01T01:05:24.232Z,14.30
2019-06-01T01:06:10.239Z,14.30
2019-06-01T01:06:56.038Z,14.30
2019-06-01T01:07:42.332Z,14.30
2019-06-01T01:08:28.076Z,14.30
2019-06-01T01:09:15.291Z,14.30
2019-06-01T01:10:01.551Z,14.30
2019-06-01T01:10:49.076Z,14.30
2019-06-01T01:11:35.463Z,14.30
2019-06-01T01:12:21.299Z,14.30
2019-06-01T01:13:15.724Z,14.40
2019-06-01T01:14:01.637Z,14.40
2019-06-01T01:14:47.495Z,14.30
2019-06-01T01:15:33.575Z,14.30
2019-06-01T01:16:19.402Z,14.30
2019-06-01T01:17:05.252Z,14.30
2019-06-01T01:17:52.018Z,14.30
2019-06-01T01:18:38.275Z,14.30
2019-06-01T01:19:23.949Z,14.30
2019-06-01T01:20:09.599Z,14.30
2019-06-01T01:20:56.240Z,14.30
2019-06-01T01:21:42.326Z,14.30
2019-06-01T01:22:28.283Z,14.30
2019-06-01T01:23:13.936Z,14.40
2019-06-01T01:23:59.588Z,14.30
2019-06-01T01:24:46.302Z,14.30
2019-06-01T01:25:32.518Z,14.30
2019-06-01T01:26:18.667Z,14.30
2019-06-01T01:27:04.422Z,14.30
2019-06-01T01:27:50.663Z,14.30
2019-06-01T01:28:36.881Z,14.20
2019-06-01T01:29:22.794Z,14.20
2019-06-01T01:30:09.007Z,14.20
2019-06-01T01:31:06.854Z,14.20
2019-06-01T01:31:42.803Z,14.20
2019-06-01T01:32:28.641Z,14.20
2019-06-01T01:33:14.523Z,14.30
2019-06-01T01:34:02.191Z,14.20
2019-06-01T01:34:49.441Z,14.30
2019-06-01T01:35:35.675Z,14.30
2019-06-01T01:36:21.519Z,14.30
2019-06-01T01:37:11.016Z,14.20
2019-06-01T01:38:00.435Z,14.20
2019-06-01T01:38:46.412Z,14.20
2019-06-01T01:39:32.554Z,14.30
2019-06-01T01:40:18.300Z,14.30
2019-06-01T01:41:04.354Z,14.30
2019-06-01T01:41:50.720Z,14.30
2019-06-01T01:42:36.858Z,14.30
2019-06-01T01:43:23.050Z,14.30
2019-06-01T01:44:09.477Z,14.30
2019-06-01T01:44:56.610Z,14.30
2019-06-01T01:45:42.800Z,14.30
2019-06-01T01:46:28.751Z,14.30
2019-06-01T01:47:14.576Z,14.40
2019-06-01T01:48:01.429Z,14.30
2019-06-01T01:48:47.732Z,14.30
2019-06-01T01:49:34.017Z,14.30
2019-06-01T01:50:21.197Z,14.40
2019-06-01T01:55:38.088Z,14.40
2019-06-01T01:56:27.703Z,14.40
2019-06-01T01:57:13.830Z,14.40
2019-06-01T01:58:01.622Z,14.40
2019-06-01T01:58:47.667Z,14.40
2019-06-01T01:59:33.464Z,14.50
2019-06-01T02:00:37.664Z,14.50
2019-06-01T02:01:23.494Z,14.50
2019-06-01T02:02:09.775Z,14.50
2019-06-01T02:02:55.870Z,14.60
2019-06-01T02:03:41.928Z,14.60
2019-06-01T02:04:28.500Z,14.60
2019-06-01T02:05:15.365Z,14.60
2019-06-01T02:06:01.284Z,14.60
2019-06-01T02:06:47.172Z,14.60
2019-06-01T02:12:21.315Z,14.60
2019-06-01T02:13:07.512Z,14.60
2019-06-01T02:13:53.886Z,14.70
2019-06-01T02:14:40.468Z,14.60
2019-06-01T02:15:26.701Z,14.70
2019-06-01T02:16:13.175Z,14.60
2019-06-01T02:17:00.280Z,14.70
2019-06-01T02:17:46.792Z,14.70
2019-06-01T02:18:33.054Z,14.70
2019-06-01T02:19:18.839Z,14.70
2019-06-01T02:20:05.645Z,14.70
2019-06-01T02:20:56.267Z,14.70
2019-06-01T02:21:48.411Z,14.70
2019-06-01T02:22:40.116Z,14.70
2019-06-01T02:23:32.640Z,14.70
2019-06-01T02:24:19.436Z,14.70
2019-06-01T02:25:05.691Z,14.80
2019-06-01T02:25:59.156Z,14.80
2019-06-01T02:26:47.546Z,14.80
2019-06-01T02:27:33.480Z,14.80
2019-06-01T02:28:19.891Z,14.80
2019-06-01T02:29:06.021Z,14.80
2019-06-01T02:29:53.109Z,14.80
2019-06-01T02:30:40.223Z,14.80
2019-06-01T02:31:40.537Z,14.80
2019-06-01T02:32:14.579Z,14.80
2019-06-01T02:33:02.226Z,14.80
2019-06-01T02:33:48.514Z,14.80
2019-06-01T02:34:34.797Z,14.80
2019-06-01T02:35:21.528Z,14.80
2019-06-01T02:36:07.729Z,14.80
2019-06-01T02:36:54.370Z,14.80
2019-06-01T02:37:40.913Z,14.80
2019-06-01T02:38:27.307Z,14.80
2019-06-01T02:39:14.132Z,14.90
2019-06-01T02:40:03.278Z,14.80
2019-06-01T02:40:49.423Z,14.90
2019-06-01T02:41:35.543Z,14.80
2019-06-01T02:42:21.616Z,14.80
2019-06-01T02:43:07.596Z,14.80
2019-06-01T02:43:54.786Z,14.80
2019-06-01T02:44:40.995Z,14.80
2019-06-01T02:45:27.339Z,14.80
2019-06-01T02:46:13.529Z,14.80
2019-06-01T02:47:01.387Z,14.80
2019-06-01T02:47:47.726Z,14.90
2019-06-01T02:48:33.932Z,14.90
2019-06-01T02:49:19.829Z,14.90
2019-06-01T02:50:06.605Z,14.90
2019-06-01T02:50:52.881Z,14.80
2019-06-01T02:51:39.672Z,14.90
2019-06-01T02:52:25.910Z,14.90
2019-06-01T02:53:12.342Z,14.90
2019-06-01T02:54:01.726Z,14.90
2019-06-01T02:54:47.859Z,14.90
2019-06-01T02:55:37.943Z,14.90
2019-06-01T02:56:24.182Z,14.90
2019-06-01T02:57:10.403Z,14.90
2019-06-01T02:57:56.514Z,14.90
2019-06-01T02:58:42.701Z,14.90
2019-06-01T02:59:28.813Z,14.90
2019-06-01T03:00:15.308Z,14.90
2019-06-01T03:01:33.889Z,14.90
2019-06-01T03:02:21.416Z,14.90
2019-06-01T03:03:07.964Z,14.90
2019-06-01T03:03:55.024Z,14.90
2019-06-01T03:04:44.728Z,14.90
2019-06-01T03:05:36.960Z,14.90
2019-06-01T03:06:27.653Z,14.90
2019-06-01T03:07:14.836Z,14.90
2019-06-01T03:08:01.389Z,14.90
2019-06-01T03:08:51.052Z,14.90
2019-06-01T03:09:38.956Z,14.90
2019-06-01T03:10:32.496Z,14.90
2019-06-01T03:11:24.218Z,14.90
2019-06-01T03:12:12.830Z,14.90
2019-06-01T03:13:02.097Z,14.90
2019-06-01T03:13:51.059Z,14.90
2019-06-01T03:14:38.724Z,14.90
2019-06-01T03:15:28.235Z,14.90
2019-06-01T03:16:17.717Z,14.90
2019-06-01T03:17:04.053Z,14.90
2019-06-01T03:17:52.488Z,14.90
2019-06-01T03:18:41.165Z,14.90
2019-06-01T03:19:28.630Z,14.90
2019-06-01T03:20:16.193Z,14.90
2019-06-01T03:21:05.054Z,14.90
2019-06-01T03:21:55.379Z,14.90
2019-06-01T03:22:41.950Z,14.90
2019-06-01T03:23:30.147Z,14.90
2019-06-01T03:24:19.645Z,14.90
2019-06-01T03:25:05.987Z,14.90
2019-06-01T03:25:53.349Z,14.90
2019-06-01T03:26:45.635Z,14.90
2019-06-01T03:27:32.397Z,14.90
2019-06-01T03:28:22.830Z,14.90
2019-06-01T03:29:19.677Z,14.90
2019-06-01T03:30:09.802Z,14.90
2019-06-01T03:30:54.682Z,14.90
2019-06-01T03:31:40.311Z,14.90
2019-06-01T03:32:36.018Z,14.90
2019-06-01T03:33:14.515Z,14.90
2019-06-01T03:34:01.501Z,14.90
2019-06-01T03:34:48.649Z,14.90
2019-06-01T03:35:38.053Z,14.90
2019-06-01T03:36:27.357Z,14.90
2019-06-01T03:37:13.427Z,14.90
2019-06-01T03:37:59.386Z,14.90
2019-06-01T03:38:45.133Z,14.90
2019-06-01T03:39:32.130Z,14.90
2019-06-01T03:40:23.802Z,14.90
2019-06-01T03:41:08.239Z,14.90
2019-06-01T03:41:54.453Z,14.90
2019-06-01T03:42:40.511Z,14.90
2019-06-01T03:43:26.818Z,14.90
2019-06-01T03:44:13.099Z,14.90
2019-06-01T03:44:59.365Z,14.90
2019-06-01T03:45:46.721Z,14.80
2019-06-01T03:46:33.188Z,14.80
2019-06-01T03:47:19.256Z,14.90
2019-06-01T03:48:06.627Z,14.90
2019-06-01T03:48:52.925Z,14.90
2019-06-01T03:49:39.192Z,14.90
2019-06-01T03:50:25.294Z,14.90
2019-06-01T03:51:11.965Z,14.90
2019-06-01T03:51:58.145Z,14.90
2019-06-01T03:52:44.072Z,14.90
2019-06-01T03:53:29.736Z,14.90
2019-06-01T03:54:15.900Z,14.90
2019-06-01T03:55:01.856Z,14.90
2019-06-01T03:55:47.786Z,14.90
2019-06-01T03:56:34.405Z,14.90
2019-06-01T03:57:20.736Z,14.90
2019-06-01T03:58:07.328Z,14.90
2019-06-01T03:58:53.891Z,14.90
2019-06-01T03:59:39.936Z,14.90
2019-06-01T04:00:25.941Z,14.90
2019-06-01T04:01:13.829Z,14.90
2019-06-01T04:02:00.870Z,14.90
2019-06-01T04:02:46.864Z,14.90
2019-06-01T04:03:33.080Z,14.90
2019-06-01T04:04:19.346Z,14.90
2019-06-01T04:05:05.619Z,14.90
2019-06-01T04:05:56.206Z,14.90
2019-06-01T04:06:42.440Z,14.90
2019-06-01T04:07:28.982Z,14.90
2019-06-01T04:08:15.072Z,14.90
2019-06-01T04:09:01.645Z,14.90
2019-06-01T04:09:47.884Z,14.90
2019-06-01T04:10:36.368Z,14.90
2019-06-01T04:11:22.616Z,15.00
2019-06-01T04:12:09.770Z,15.00
2019-06-01T04:12:55.955Z,15.00
2019-06-01T04:13:41.668Z,15.00
2019-06-01T04:14:27.933Z,15.00
2019-06-01T04:15:16.711Z,15.00
2019-06-01T04:16:01.817Z,15.00
2019-06-01T04:16:47.906Z,15.00
2019-06-01T04:17:34.168Z,15.00
2019-06-01T04:18:19.924Z,15.00
2019-06-01T04:19:05.995Z,15.00
2019-06-01T04:19:52.012Z,15.00
2019-06-01T04:20:38.638Z,15.00
2019-06-01T04:21:24.467Z,14.90
2019-06-01T04:22:12.299Z,14.90
2019-06-01T04:22:58.250Z,14.90
2019-06-01T04:23:43.843Z,14.90
2019-06-01T04:24:29.547Z,15.00
2019-06-01T04:25:15.172Z,15.00
2019-06-01T04:26:02.171Z,15.00
2019-06-01T04:26:48.338Z,15.00
2019-06-01T04:27:33.959Z,15.00
2019-06-01T04:28:19.665Z,15.00
2019-06-01T04:29:06.383Z,15.00
2019-06-01T04:29:52.602Z,15.10
2019-06-01T04:30:38.904Z,15.10
2019-06-01T04:31:24.931Z,15.10
2019-06-01T04:32:10.772Z,15.10
2019-06-01T04:32:56.893Z,15.10
2019-06-01T04:33:43.475Z,15.10
2019-06-01T04:34:29.691Z,15.10
2019-06-01T04:35:17.790Z,15.10
2019-06-01T04:36:04.880Z,15.10
2019-06-01T04:36:50.990Z,15.10
2019-06-01T04:37:37.099Z,15.20
2019-06-01T04:38:22.848Z,15.20
2019-06-01T04:39:09.539Z,15.20
2019-06-01T04:39:55.384Z,15.20
2019-06-01T04:40:43.495Z,15.20
2019-06-01T04:41:29.932Z,15.20
2019-06-01T04:42:15.904Z,15.30
2019-06-01T04:43:02.054Z,15.30
2019-06-01T04:43:47.628Z,15.30
2019-06-01T04:44:33.799Z,15.30
2019-06-01T04:45:19.439Z,15.30
2019-06-01T04:46:06.130Z,15.30
2019-06-01T04:46:52.106Z,15.30
2019-06-01T04:47:37.788Z,15.40
2019-06-01T04:48:23.432Z,15.40
2019-06-01T04:49:10.747Z,15.40
2019-06-01T04:49:56.857Z,15.40
2019-06-01T04:50:42.827Z,15.50
2019-06-01T04:51:28.639Z,15.50
2019-06-01T04:52:15.221Z,15.50
2019-06-01T04:53:01.371Z,15.60
2019-06-01T04:53:47.603Z,15.60
2019-06-01T04:54:33.354Z,15.60
2019-06-01T04:55:19.085Z,15.60
2019-06-01T04:56:05.228Z,15.70
2019-06-01T04:56:51.560Z,15.70
2019-06-01T04:57:37.368Z,15.70
2019-06-01T04:58:23.374Z,15.70
2019-06-01T04:59:09.114Z,15.70
2019-06-01T04:59:55.292Z,15.70
2019-06-01T05:00:44.211Z,15.70
2019-06-01T05:01:30.806Z,15.70
2019-06-01T05:02:16.727Z,15.70
2019-06-01T05:03:06.718Z,15.70
2019-06-01T05:03:50.108Z,15.70
2019-06-01T05:04:35.738Z,15.80
2019-06-01T05:05:21.878Z,15.80
2019-06-01T05:06:09.149Z,15.80
2019-06-01T05:06:58.310Z,15.80
2019-06-01T05:07:44.414Z,15.80
2019-06-01T05:08:30.815Z,15.80
2019-06-01T05:09:16.980Z,15.80
2019-06-01T05:10:05.102Z,15.80
2019-06-01T05:10:50.898Z,15.80
2019-06-01T05:11:36.613Z,15.90
2019-06-01T05:12:22.310Z,15.90
2019-06-01T05:13:07.970Z,15.90
2019-06-01T05:13:54.092Z,15.90
2019-06-01T05:14:39.790Z,15.90
2019-06-01T05:15:25.931Z,15.90
2019-06-01T05:16:14.392Z,16.00
2019-06-01T05:17:01.176Z,16.00
2019-06-01T05:17:47.303Z,16.00
2019-06-01T05:18:32.951Z,16.00
2019-06-01T05:19:18.681Z,16.00
2019-06-01T05:20:06.240Z,16.00
2019-06-01T05:20:52.291Z,16.00
2019-06-01T05:21:38.080Z,16.10
2019-06-01T05:22:23.855Z,16.10
2019-06-01T05:23:10.586Z,16.00
2019-06-01T05:23:56.520Z,16.10
2019-06-01T05:24:42.223Z,16.10
2019-06-01T05:25:27.960Z,16.10
2019-06-01T05:26:15.009Z,16.20
2019-06-01T05:27:00.978Z,16.20
2019-06-01T05:27:47.191Z,16.20
2019-06-01T05:28:32.832Z,16.30
2019-06-01T05:29:18.929Z,16.20
2019-06-01T05:30:05.516Z,16.30
2019-06-01T05:30:51.951Z,16.30
2019-06-01T05:31:38.067Z,16.30
2019-06-01T05:32:23.736Z,16.40
2019-06-01T05:33:26.555Z,16.40
2019-06-01T05:33:57.232Z,16.40
2019-06-01T05:34:43.393Z,16.40
2019-06-01T05:35:29.677Z,16.40
2019-06-01T05:36:16.282Z,16.40
2019-06-01T05:37:02.408Z,16.50
2019-06-01T05:37:48.172Z,16.50
2019-06-01T05:38:33.995Z,16.50
2019-06-01T05:39:19.830Z,16.50
2019-06-01T05:40:06.381Z,16.50
2019-06-01T05:40:52.139Z,16.50
2019-06-01T05:41:37.966Z,16.50
2019-06-01T05:42:23.732Z,16.60
2019-06-01T05:43:13.046Z,16.60
2019-06-01T05:43:57.055Z,16.60
2019-06-01T05:44:42.753Z,16.60
2019-06-01T05:45:29.037Z,16.70
2019-06-01T05:46:16.073Z,16.70
2019-06-01T05:47:02.259Z,16.70
2019-06-01T05:47:47.973Z,16.80
2019-06-01T05:48:33.735Z,16.80
2019-06-01T05:49:19.902Z,16.80
2019-06-01T05:50:05.844Z,16.80
2019-06-01T05:50:51.755Z,16.90
2019-06-01T05:51:37.514Z,16.90
2019-06-01T05:52:23.888Z,16.90
2019-06-01T05:53:10.444Z,17.00
2019-06-01T05:53:56.935Z,17.00
2019-06-01T05:54:43.055Z,17.00
2019-06-01T05:55:29.675Z,17.00
2019-06-01T05:56:16.876Z,17.00
2019-06-01T05:57:02.651Z,17.00
2019-06-01T05:57:48.584Z,17.00
2019-06-01T05:58:34.797Z,17.10
2019-06-01T05:59:22.267Z,17.10
2019-06-01T06:00:10.996Z,17.00
2019-06-01T06:00:57.227Z,17.10
2019-06-01T06:01:42.946Z,17.10
2019-06-01T06:02:28.720Z,17.10
2019-06-01T06:03:16.044Z,17.10
2019-06-01T06:04:02.279Z,17.10
2019-06-01T06:04:48.533Z,17.10
2019-06-01T06:05:34.214Z,17.10
2019-06-01T06:06:20.365Z,17.10
2019-06-01T06:07:06.547Z,17.20
2019-06-01T06:07:52.345Z,17.20
2019-06-01T06:08:38.423Z,17.30
2019-06-01T06:09:24.114Z,17.20
2019-06-01T06:10:10.065Z,17.20
2019-06-01T06:10:55.794Z,17.30
2019-06-01T06:11:41.475Z,17.30
2019-06-01T06:12:27.231Z,17.30
2019-06-01T06:13:13.449Z,17.30
2019-06-01T06:13:59.668Z,17.40
2019-06-01T06:14:45.412Z,17.50
2019-06-01T06:15:31.120Z,17.50
2019-06-01T06:16:17.936Z,17.50
2019-06-01T06:17:04.333Z,17.50
2019-06-01T06:17:50.099Z,17.50
2019-06-01T06:18:35.790Z,17.60
2019-06-01T06:19:23.478Z,17.70
2019-06-01T06:20:09.197Z,17.70
2019-06-01T06:20:54.995Z,17.70
2019-06-01T06:21:41.167Z,17.70
2019-06-01T06:22:26.935Z,17.80
2019-06-01T06:23:12.869Z,17.80
2019-06-01T06:23:58.875Z,17.90
2019-06-01T06:24:45.286Z,17.90
2019-06-01T06:25:33.426Z,18.00
2019-06-01T06:26:20.524Z,18.00
2019-06-01T06:27:07.074Z,18.00
2019-06-01T06:27:54.587Z,18.10
2019-06-01T06:28:40.856Z,18.10
2019-06-01T06:29:26.777Z,18.10
2019-06-01T06:30:13.475Z,18.10
2019-06-01T06:30:59.841Z,18.20
2019-06-01T06:31:46.306Z,18.20
2019-06-01T06:32:32.273Z,18.30
2019-06-01T06:33:19.365Z,18.40
2019-06-01T06:34:05.490Z,18.50
2019-06-01T06:34:51.643Z,18.50
2019-06-01T06:35:37.417Z,18.60
2019-06-01T06:36:23.811Z,18.70
2019-06-01T06:37:10.408Z,18.80
2019-06-01T06:37:56.344Z,18.90
2019-06-01T06:38:43.131Z,19.00
2019-06-01T06:39:29.724Z,19.10
2019-06-01T06:40:17.995Z,19.20
2019-06-01T06:41:04.361Z,19.30
2019-06-01T06:41:50.173Z,19.50
2019-06-01T06:42:35.980Z,19.60
2019-06-01T06:43:30.601Z,19.60
2019-06-01T06:44:10.181Z,19.70
2019-06-01T06:44:56.304Z,19.80
2019-06-01T06:45:42.354Z,19.80
2019-06-01T06:46:45.888Z,19.90
2019-06-01T06:47:45.317Z,20.00
2019-06-01T06:48:55.744Z,20.10
2019-06-01T06:50:00.563Z,20.20
2019-06-01T06:51:02.677Z,20.30
2019-06-01T06:52:17.356Z,20.40
2019-06-01T06:53:04.319Z,20.60
2019-06-01T06:53:50.618Z,20.80
2019-06-01T06:54:37.274Z,21.00
2019-06-01T06:55:26.155Z,21.20
2019-06-01T06:56:12.822Z,21.30
2019-06-01T06:56:59.179Z,21.40
2019-06-01T06:57:45.290Z,21.60
2019-06-01T06:58:31.388Z,21.60
2019-06-01T06:59:18.435Z,21.70
2019-06-01T07:00:05.386Z,21.80
2019-06-01T07:00:51.303Z,21.90
2019-06-01T07:01:37.384Z,22.00
2019-06-01T07:02:23.324Z,22.20
2019-06-01T07:03:10.091Z,22.40
2019-06-01T07:04:09.444Z,22.40
2019-06-01T07:04:53.876Z,22.40
2019-06-01T07:05:39.744Z,22.60
2019-06-01T07:06:25.733Z,22.80
2019-06-01T07:07:12.022Z,22.90
2019-06-01T07:07:57.929Z,23.00
2019-06-01T07:08:43.834Z,23.20
2019-06-01T07:09:29.911Z,23.20
2019-06-01T07:10:16.101Z,23.40
2019-06-01T07:11:02.078Z,23.50
2019-06-01T07:11:48.201Z,23.60
2019-06-01T07:12:34.273Z,23.70
2019-06-01T07:13:21.293Z,23.70
2019-06-01T07:14:07.079Z,23.80
2019-06-01T07:14:53.445Z,23.80
2019-06-01T07:15:39.881Z,23.80
2019-06-01T07:16:26.127Z,23.90
2019-06-01T07:17:15.547Z,24.00
2019-06-01T07:18:00.764Z,24.10
2019-06-01T07:18:47.109Z,24.10
2019-06-01T07:19:33.362Z,24.20
2019-06-01T07:20:19.518Z,24.50
2019-06-01T07:21:05.621Z,24.60
2019-06-01T07:21:51.783Z,24.70
2019-06-01T07:22:37.924Z,24.60
2019-06-01T07:23:27.956Z,24.70
2019-06-01T07:24:13.926Z,24.70
2019-06-01T07:24:59.809Z,24.80
2019-06-01T07:25:45.934Z,24.90
2019-06-01T07:26:32.389Z,25.10
2019-06-01T07:27:18.359Z,25.10
2019-06-01T07:28:04.348Z,25.20
2019-06-01T07:28:50.553Z,25.50
2019-06-01T07:29:36.733Z,25.60
2019-06-01T07:30:24.165Z,25.60
2019-06-01T07:31:10.313Z,25.70
2019-06-01T07:31:56.023Z,25.60
2019-06-01T07:32:42.047Z,25.60
2019-06-01T07:33:28.568Z,25.70
2019-06-01T07:34:29.767Z,25.80
2019-06-01T07:35:02.513Z,25.80
2019-06-01T07:35:48.179Z,26.00
2019-06-01T07:36:33.986Z,26.00
2019-06-01T07:37:20.692Z,25.90
2019-06-01T07:38:07.292Z,26.30
2019-06-01T07:38:53.265Z,26.30
2019-06-01T07:39:39.533Z,26.40
2019-06-01T07:40:26.635Z,26.40
2019-06-01T07:41:12.939Z,26.60
2019-06-01T07:41:59.280Z,26.60
2019-06-01T07:42:46.071Z,26.60
2019-06-01T07:43:33.072Z,26.80
2019-06-01T07:44:20.672Z,26.90
2019-06-01T07:45:07.114Z,27.10
2019-06-01T07:45:53.004Z,27.20
2019-06-01T07:46:39.327Z,27.20
2019-06-01T07:47:25.331Z,27.20
2019-06-01T07:48:12.927Z,27.20
2019-06-01T07:48:59.580Z,27.20
2019-06-01T07:49:46.071Z,27.50
2019-06-01T07:50:32.297Z,27.40
2019-06-01T07:51:18.805Z,27.50
2019-06-01T07:52:12.619Z,27.50
2019-06-01T07:52:52.925Z,27.50
2019-06-01T07:53:38.773Z,27.50
2019-06-01T07:54:24.938Z,27.60
2019-06-01T07:55:11.029Z,27.70
2019-06-01T07:55:56.855Z,27.80
2019-06-01T07:56:42.991Z,27.80
2019-06-01T07:57:29.819Z,27.80
2019-06-01T07:58:15.968Z,28.00
2019-06-01T07:59:02.168Z,27.90
2019-06-01T07:59:48.304Z,27.90
2019-06-01T08:00:34.476Z,27.80
2019-06-01T08:01:20.193Z,27.80
2019-06-01T08:02:07.626Z,27.60
2019-06-01T08:02:53.368Z,27.50
2019-06-01T08:03:39.027Z,27.70
2019-06-01T08:04:26.724Z,27.90
2019-06-01T08:05:12.507Z,27.80
2019-06-01T08:05:58.435Z,27.80
2019-06-01T08:06:47.319Z,28.00
2019-06-01T08:07:31.964Z,28.40
2019-06-01T08:08:17.759Z,28.60
2019-06-01T08:09:04.978Z,28.80
2019-06-01T08:09:50.733Z,28.60
2019-06-01T08:10:36.587Z,28.60
2019-06-01T08:11:25.009Z,28.60
2019-06-01T08:12:10.285Z,28.70
2019-06-01T08:12:56.590Z,28.70
2019-06-01T08:13:42.845Z,28.70
2019-06-01T08:14:29.084Z,28.60
2019-06-01T08:15:15.280Z,28.70
2019-06-01T08:16:01.224Z,28.70
2019-06-01T08:16:47.492Z,29.00
2019-06-01T08:17:33.692Z,28.90
2019-06-01T08:18:19.709Z,28.80
2019-06-01T08:19:05.579Z,28.80
2019-06-01T08:19:51.989Z,28.90
2019-06-01T08:20:37.916Z,28.90
2019-06-01T08:21:23.956Z,28.60
2019-06-01T08:22:09.845Z,28.60
2019-06-01T08:22:56.038Z,28.80
2019-06-01T08:23:42.252Z,28.90
2019-06-01T08:24:28.571Z,29.00
2019-06-01T08:25:14.976Z,29.20
2019-06-01T08:26:01.353Z,29.20
2019-06-01T08:26:48.018Z,29.20
2019-06-01T08:27:34.114Z,29.40
2019-06-01T08:28:20.681Z,29.40
2019-06-01T08:29:07.275Z,29.20
2019-06-01T08:29:53.598Z,29.30
2019-06-01T08:30:39.803Z,29.40
2019-06-01T08:31:26.626Z,29.50
2019-06-01T08:32:12.957Z,29.40
2019-06-01T08:32:58.655Z,29.70
2019-06-01T08:33:44.880Z,29.80
2019-06-01T08:34:31.132Z,29.80
2019-06-01T08:35:17.372Z,30.00
2019-06-01T08:36:03.303Z,30.10
2019-06-01T08:36:49.237Z,30.30
2019-06-01T08:37:34.952Z,30.40
2019-06-01T08:38:20.787Z,30.50
2019-06-01T08:39:07.168Z,30.50
2019-06-01T08:39:53.419Z,30.30
2019-06-01T08:40:39.863Z,30.30
2019-06-01T08:41:27.576Z,30.50
2019-06-01T08:42:13.522Z,30.60
2019-06-01T08:42:59.731Z,30.60
2019-06-01T08:43:45.520Z,30.40
2019-06-01T08:44:32.253Z,30.50
2019-06-01T08:45:18.678Z,30.80
2019-06-01T08:46:04.739Z,30.80
2019-06-01T08:46:51.371Z,30.40
2019-06-01T08:47:37.814Z,30.50
2019-06-01T08:48:25.565Z,30.70
2019-06-01T08:49:11.762Z,30.70
2019-06-01T08:49:58.150Z,30.80
2019-06-01T08:50:46.202Z,30.40
2019-06-01T08:51:32.182Z,30.20
2019-06-01T08:52:17.980Z,30.30
2019-06-01T08:53:03.697Z,30.30
2019-06-01T08:53:49.646Z,30.20
2019-06-01T08:54:35.409Z,30.40
2019-06-01T08:55:21.639Z,30.60
2019-06-01T08:56:07.577Z,30.80
2019-06-01T08:56:53.857Z,30.80
2019-06-01T08:57:39.525Z,30.80
2019-06-01T08:58:26.210Z,30.70
2019-06-01T08:59:12.084Z,30.90
2019-06-01T08:59:58.196Z,31.10
2019-06-01T09:00:43.989Z,31.10
2019-06-01T09:01:30.586Z,31.10
2019-06-01T09:02:16.248Z,30.90
2019-06-01T09:03:01.916Z,31.00
2019-06-01T09:03:47.724Z,31.00
2019-06-01T09:04:34.935Z,31.00
2019-06-01T09:05:24.301Z,31.40
2019-06-01T09:06:09.108Z,31.60
2019-06-01T09:06:54.875Z,31.60
2019-06-01T09:07:40.622Z,31.50
2019-06-01T09:08:27.107Z,31.50
2019-06-01T09:09:12.996Z,31.50
2019-06-01T09:09:58.784Z,31.40
2019-06-01T09:10:44.508Z,31.00
2019-06-01T09:11:31.124Z,31.30
2019-06-01T09:12:17.447Z,31.60
2019-06-01T09:13:03.105Z,31.60
2019-06-01T09:13:52.296Z,31.80
2019-06-01T09:14:37.418Z,32.20
2019-06-01T09:15:23.631Z,32.60
2019-06-01T09:16:09.576Z,33.00
2019-06-01T09:16:55.714Z,32.90
2019-06-01T09:17:41.387Z,33.30
2019-06-01T09:18:27.545Z,33.50
2019-06-01T09:19:13.752Z,33.90
2019-06-01T09:19:59.921Z,34.00
2019-06-01T09:20:46.146Z,34.20
2019-06-01T09:21:33.546Z,34.40
2019-06-01T09:22:19.525Z,34.80
2019-06-01T09:23:05.724Z,35.00
2019-06-01T09:23:51.962Z,34.90
2019-06-01T09:24:38.331Z,34.50
2019-06-01T09:25:25.538Z,35.10
2019-06-01T09:26:11.820Z,35.70
2019-06-01T09:27:00.524Z,36.00
2019-06-01T09:27:46.647Z,35.50
2019-06-01T09:28:32.322Z,34.60
2019-06-01T09:29:17.941Z,33.50
2019-06-01T09:30:05.476Z,33.00
2019-06-01T09:30:51.688Z,33.00
2019-06-01T09:31:37.751Z,33.60
2019-06-01T09:32:23.795Z,34.30
2019-06-01T09:33:10.034Z,35.40
2019-06-01T09:33:56.832Z,35.70
2019-06-01T09:34:43.615Z,36.10
2019-06-01T09:35:48.224Z,36.50
2019-06-01T09:36:18.430Z,36.80
2019-06-01T09:37:05.185Z,37.40
2019-06-01T09:37:51.941Z,38.00
2019-06-01T09:38:38.577Z,38.40
2019-06-01T09:39:26.485Z,38.60
2019-06-01T09:40:13.301Z,38.20
2019-06-01T09:40:59.662Z,37.50
2019-06-01T09:41:46.242Z,35.90
2019-06-01T09:42:33.393Z,35.20
2019-06-01T09:43:20.155Z,34.60
2019-06-01T09:44:06.640Z,35.20
2019-06-01T09:44:56.848Z,35.60
2019-06-01T09:45:42.538Z,35.70
2019-06-01T09:46:28.902Z,36.10
2019-06-01T09:47:15.079Z,36.10
2019-06-01T09:48:00.894Z,35.60
2019-06-01T09:48:46.735Z,35.70
2019-06-01T09:49:34.114Z,35.90
2019-06-01T09:50:20.943Z,36.00
2019-06-01T09:51:06.763Z,36.00
2019-06-01T09:51:52.567Z,35.80
2019-06-01T09:52:38.869Z,35.70
2019-06-01T09:53:24.954Z,36.30
2019-06-01T09:54:10.679Z,36.50
2019-06-01T09:54:56.363Z,36.20
2019-06-01T09:55:42.550Z,36.80
2019-06-01T09:56:33.430Z,37.20
2019-06-01T09:57:18.860Z,37.10
2019-06-01T09:58:04.719Z,37.60
2019-06-01T09:58:50.610Z,38.00
2019-06-01T09:59:36.460Z,38.00
2019-06-01T10:00:22.684Z,37.90
2019-06-01T10:01:08.324Z,38.10
2019-06-01T10:01:54.020Z,36.90
2019-06-01T10:02:40.208Z,36.30
2019-06-01T10:03:26.422Z,36.50
2019-06-01T10:04:14.186Z,36.10
2019-06-01T10:05:00.315Z,36.30
2019-06-01T10:06:00.941Z,35.50
2019-06-01T10:06:34.847Z,34.50
2019-06-01T10:07:21.065Z,35.40
2019-06-01T10:08:07.381Z,36.20
2019-06-01T10:08:53.545Z,36.70
2019-06-01T10:09:39.839Z,36.90
2019-06-01T10:10:25.811Z,37.20
2019-06-01T10:11:12.168Z,37.30
2019-06-01T10:11:58.317Z,37.40